Latest Weather Observations for Lismore Airport

IDN60801

Issued at 10:53 am EST Wednesday 21 April 2021 (issued every 10 minutes, with the page automatically refreshed every 10 minutes)

About weather observations | Map of weather stations | Latest weather observations for NSW | Other Formats
Station Details ID: 058214 Name: LISMORE AIRPORT AWS Lat: -28.83 Lon: 153.26 Height: 9.21 m
Data from the previous 72 hours. | See also: Recent months at Lismore Airport
Date/Time
EST
Temp
°C
App
Temp
°C
Dew
Point
°C
Rel
Hum
%
Delta-T
°C
Wind Press
QNH
hPa
Press
MSL
hPa
Rain since
9am
mm
Dir  Spd
km/h
Gust
km/h
Spd
kts
Gust
kts
21/10:30am 24.9 21.7 11.1 42 7.8 NW 19 24 10 13 1012.7 1012.7 0.0
21/10:00am 24.2 22.4 13.4 51 6.3 NW 15 22 8 12 1013.0 1013.0 0.0
21/09:30am 22.0 20.9 14.4 62 4.5 NNW 13 17 7 9 1013.3 1013.3 0.0
21/09:00am 19.4 18.0 14.4 73 2.9 N 15 19 8 10 1013.4 1013.4 0.2
21/08:30am 16.8 14.8 13.9 83 1.6 N 17 20 9 11 1013.7 1013.7 0.2
21/08:00am 14.9 14.0 13.8 93 0.6 N 11 19 6 10 1013.9 1013.9 0.2
21/07:30am 12.6 11.1 12.0 96 0.3 NNE 11 17 6 9 1013.9 1013.9 0.2
21/07:00am 11.3 9.5 11.0 98 0.2 N 11 13 6 7 1013.8 1013.8 0.2
21/06:30am 9.6 8.3 9.1 97 0.2 NNW 6 7 3 4 1013.8 1013.8 0.2
21/06:00am 9.9 9.0 9.4 97 0.2 ESE 4 7 2 4 1013.3 1013.3 0.2
21/05:30am 9.5 8.9 8.9 96 0.3 NE 2 11 1 6 1013.0 1013.0 0.2
21/05:00am 10.3 8.6 9.8 97 0.3 N 9 11 5 6 1012.6 1012.6 0.2
21/04:30am 10.6 8.6 10.1 97 0.3 N 11 13 6 7 1012.4 1012.4 0.2
21/04:00am 11.1 8.9 10.8 98 0.2 N 13 15 7 8 1012.3 1012.3 0.2
21/03:30am 11.1 8.8 10.6 97 0.3 N 13 15 7 8 1012.3 1012.3 0.2
21/03:00am 11.4 9.2 10.9 97 0.3 N 13 15 7 8 1012.4 1012.4 0.2
21/02:30am 11.0 9.1 10.4 96 0.3 N 11 13 6 7 1012.6 1012.6 0.2
21/02:00am 11.4 9.5 10.6 95 0.4 N 11 13 6 7 1012.7 1012.7 0.2
21/01:30am 11.6 10.5 10.7 94 0.5 N 7 11 4 6 1013.1 1013.1 0.2
21/01:00am 12.0 9.9 11.2 95 0.4 N 13 15 7 8 1013.5 1013.5 0.2
21/12:30am 12.0 10.3 11.1 94 0.5 N 11 15 6 8 1014.0 1014.0 0.2
21/12:00am 12.3 10.7 11.4 94 0.5 NNE 11 13 6 7 1014.0 1014.0 0.2
 
Date/Time
EST
Temp
°C
App
Temp
°C
Dew
Point
°C
Rel
Hum
%
Delta-T
°C
Wind Press
QNH
hPa
Press
MSL
hPa
Rain since
9am
mm
Dir  Spd
km/h
Gust
km/h
Spd
kts
Gust
kts
20/11:30pm 12.8 11.2 11.7 93 0.6 N 11 13 6 7 1014.1 1014.1 0.2
20/11:00pm 13.2 11.8 12.1 93 0.6 N 11 13 6 7 1014.5 1014.5 0.2
20/10:30pm 13.4 12.3 12.0 91 0.8 N 9 11 5 6 1014.5 1014.5 0.2
20/10:00pm 13.7 13.1 12.3 91 0.8 NNE 7 11 4 6 1014.8 1014.8 0.2
20/09:30pm 14.3 13.5 12.9 91 0.8 NNE 9 13 5 7 1014.9 1014.9 0.2
20/09:00pm 13.9 13.2 11.4 85 1.3 N 6 17 3 9 1014.8 1014.8 0.2
20/08:30pm 15.2 13.4 13.2 88 1.1 N 15 17 8 9 1014.6 1014.6 0.2
20/08:00pm 15.5 13.3 13.2 86 1.3 NNW 17 19 9 10 1014.4 1014.4 0.2
20/07:30pm 16.2 14.1 13.7 85 1.4 NNW 17 19 9 10 1014.3 1014.3 0.2
20/07:00pm 15.8 14.4 13.5 86 1.3 N 13 17 7 9 1014.0 1014.0 0.2
20/06:30pm 17.0 15.7 13.7 81 1.9 N 13 15 7 8 1013.5 1013.5 0.2
20/06:00pm 17.4 16.2 12.9 75 2.5 NNW 11 13 6 7 1013.2 1013.2 0.2
20/05:30pm 20.4 19.8 13.4 64 4.0 NNW 9 11 5 6 1013.0 1013.0 0.2
20/05:00pm 23.1 21.2 13.0 53 5.8 NNE 15 19 8 10 1012.9 1012.9 0.2
20/04:30pm 24.2 22.7 13.1 50 6.4 N 13 17 7 9 1012.9 1012.9 0.2
20/04:00pm 25.2 24.0 12.8 46 7.2 N 11 17 6 9 1012.9 1012.9 0.2
20/03:30pm 25.9 24.1 13.4 46 7.3 N 15 20 8 11 1013.2 1013.2 0.2
20/03:00pm 25.9 23.8 12.4 43 7.8 NNW 15 20 8 11 1013.3 1013.3 0.2
20/02:30pm 26.3 23.6 11.6 40 8.4 NNW 17 24 9 13 1013.4 1013.4 0.2
20/02:00pm 26.2 24.3 13.0 44 7.7 NNW 15 22 8 12 1013.6 1013.6 0.2
20/01:30pm 26.2 24.2 11.5 40 8.4 NW 13 22 7 12 1013.7 1013.7 0.2
20/01:00pm 26.1 22.4 9.5 35 9.1 W 19 30 10 16 1014.2 1014.2 0.2
20/12:30pm 25.6 22.6 10.6 39 8.4 W 17 24 9 13 1014.7 1014.7 0.2
20/12:00pm 25.1 21.6 10.9 41 7.9 NW 20 28 11 15 1015.6 1015.6 0.2
20/11:30am 24.7 21.1 10.6 41 7.8 NW 20 30 11 16 1016.2 1016.2 0.2
20/11:00am 24.3 22.9 13.5 51 6.3 NNW 13 24 7 13 1016.2 1016.2 0.2
20/10:30am 23.6 22.5 14.3 56 5.5 NNW 13 20 7 11 1016.7 1016.7 0.2
20/10:00am 21.7 21.8 16.4 72 3.2 NNW 11 15 6 8 1017.5 1017.5 0.0
20/09:30am 18.8 18.7 15.9 83 1.7 N 11 13 6 7 1017.8 1017.8 0.0
20/09:00am 16.8 17.4 16.8 100 0.0 N 9 13 5 7 1017.9 1017.9 0.2
20/08:47am 16.1 16.0 16.1 100 0.0 N 11 13 6 7 1018.1 1018.1 0.2
20/08:35am 14.7 14.1 14.7 100 0.0 N 11 15 6 8 1018.2 1018.2 0.2
20/08:30am 14.8 14.3 14.8 100 0.0 N 11 13 6 7 1018.2 1018.2 0.2
20/08:19am 14.3 14.0 14.3 100 0.0 N 9 11 5 6 1018.2 1018.2 0.2
20/08:00am 12.7 11.5 12.7 100 0.0 NNE 11 13 6 7 1018.2 1018.2 0.2
20/07:30am 11.3 10.0 11.3 100 0.0 N 9 11 5 6 1018.1 1018.1 0.2
20/07:00am 10.9 9.5 10.9 100 0.0 N 9 11 5 6 1017.9 1017.9 0.2
20/06:30am 10.7 9.2 10.7 100 0.0 N 9 13 5 7 1017.7 1017.7 0.2
20/06:00am 10.8 9.0 10.8 100 0.0 N 11 13 6 7 1017.7 1017.7 0.2
20/05:30am 10.9 9.1 10.9 100 0.0 N 11 13 6 7 1017.4 1017.4 0.2
20/05:00am 11.3 9.2 11.3 100 0.0 N 13 15 7 8 1017.2 1017.2 0.2
20/04:30am 11.3 9.6 11.1 99 0.1 N 11 15 6 8 1017.0 1017.0 0.2
20/04:00am 11.4 9.3 11.2 99 0.1 N 13 15 7 8 1016.6 1016.6 0.2
20/03:30am 11.5 9.8 11.3 99 0.1 N 11 13 6 7 1016.5 1016.5 0.2
20/03:00am 11.5 10.2 11.2 98 0.2 N 9 13 5 7 1016.6 1016.6 0.2
20/02:30am 11.9 10.3 11.6 98 0.2 N 11 13 6 7 1016.8 1016.8 0.2
20/02:00am 12.2 10.7 11.9 98 0.2 N 11 13 6 7 1017.0 1017.0 0.2
20/01:49am 12.3 11.2 12.0 98 0.2 N 9 13 5 7 1017.0 1017.0 0.2
20/01:41am 12.5 11.1 12.2 98 0.2 N 11 13 6 7 1017.1 1017.1 0.2
20/01:30am 12.2 10.6 11.7 97 0.3 N 11 13 6 7 1017.1 1017.1 0.2
20/01:08am 12.1 10.5 11.6 97 0.3 N 11 13 6 7 1017.2 1017.2 0.2
20/01:00am 12.2 10.6 11.7 97 0.3 N 11 15 6 8 1017.2 1017.2 0.2
20/12:53am 12.4 10.5 11.9 97 0.3 N 13 17 7 9 1017.3 1017.3 0.2
20/12:47am 12.7 10.9 12.2 97 0.3 N 13 15 7 8 1017.4 1017.4 0.2
20/12:36am 12.8 11.4 12.3 97 0.3 N 11 13 6 7 1017.5 1017.5 0.2
20/12:30am 12.9 11.6 12.4 97 0.3 N 11 13 6 7 1017.6 1017.6 0.2
20/12:00am 13.2 12.3 12.6 96 0.3 N 9 11 5 6 1017.6 1017.6 0.2
 
Date/Time
EST
Temp
°C
App
Temp
°C
Dew
Point
°C
Rel
Hum
%
Delta-T
°C
Wind Press
QNH
hPa
Press
MSL
hPa
Rain since
9am
mm
Dir  Spd
km/h
Gust
km/h
Spd
kts
Gust
kts
19/11:30pm 13.4 12.5 12.6 95 0.4 N 9 13 5 7 1017.6 1017.6 0.2
19/11:00pm 13.8 12.3 13.2 96 0.3 N 13 15 7 8 1017.7 1017.7 0.2
19/10:30pm 13.7 12.1 12.8 94 0.5 N 13 13 7 7 1017.8 1017.8 0.2
19/10:00pm 13.9 12.8 13.0 94 0.5 N 11 13 6 7 1017.9 1017.9 0.2
19/09:30pm 14.0 12.9 13.1 94 0.5 N 11 13 6 7 1017.8 1017.8 0.2
19/09:00pm 13.9 12.9 12.3 90 0.9 N 9 11 5 6 1017.8 1017.8 0.2
19/08:30pm 14.6 13.9 13.1 91 0.8 N 9 11 5 6 1017.7 1017.7 0.2
19/08:00pm 15.2 14.5 13.2 88 1.1 N 9 9 5 5 1017.7 1017.7 0.2
19/07:30pm 14.9 14.4 12.8 87 1.2 NNW 7 9 4 5 1017.4 1017.4 0.2
19/07:00pm 15.6 15.3 13.3 86 1.3 NE 7 9 4 5 1017.0 1017.0 0.2
19/06:30pm 15.8 15.4 13.1 84 1.5 W 7 9 4 5 1016.7 1016.7 0.2
19/06:00pm 17.2 17.7 12.9 76 2.4 ENE 2 6 1 3 1016.5 1016.5 0.2
19/05:30pm 19.7 20.8 13.4 67 3.6 CALM 0 0 0 0 1016.3 1016.3 0.2
19/05:00pm 20.7 20.1 13.6 64 4.1 ESE 9 13 5 7 1016.1 1016.1 0.2
19/04:30pm 21.9 21.6 14.3 62 4.4 SE 9 15 5 8 1016.0 1016.0 0.2
19/04:00pm 22.4 20.7 13.7 58 5.0 SE 15 20 8 11 1015.9 1015.9 0.2
19/03:30pm 24.2 23.9 14.3 54 5.9 S 9 17 5 9 1015.8 1015.8 0.2
19/03:00pm 23.3 22.6 14.3 57 5.3 ESE 11 15 6 8 1015.7 1015.7 0.2
19/02:30pm 22.4 21.4 14.5 61 4.6 ESE 13 20 7 11 1016.0 1016.0 0.2
19/02:00pm 24.2 23.7 12.5 48 6.7 WNW 7 13 4 7 1016.0 1016.0 0.2
19/01:30pm 23.8 22.4 10.8 44 7.2 SW 9 17 5 9 1016.1 1016.1 0.2
19/01:00pm 22.4 20.8 11.5 50 6.1 SSE 11 17 6 9 1016.4 1016.4 0.2
19/12:30pm 22.2 21.3 12.7 55 5.4 SSE 9 17 5 9 1016.8 1016.8 0.2
19/12:00pm 22.6 22.1 12.8 54 5.6 S 7 19 4 10 1017.2 1017.2 0.2
19/11:30am 21.6 20.7 12.7 57 5.1 SW 9 19 5 10 1017.8 1017.8 0.2
19/11:00am 21.9 21.2 13.3 58 4.9 SSW 9 19 5 10 1018.3 1018.3 0.0
19/10:30am 21.4 20.0 13.3 60 4.6 SSW 13 20 7 11 1018.5 1018.5 0.0
19/10:00am 21.0 19.3 12.4 58 4.8 SW 13 20 7 11 1019.0 1019.0 0.0
19/09:30am 20.0 19.1 12.5 62 4.2 WSW 9 17 5 9 1019.1 1019.1 0.0
19/09:00am 18.8 19.7 13.9 73 2.8 NNE 2 7 1 4 1019.2 1019.2 0.0
19/08:30am 16.3 16.0 13.4 83 1.6 NNE 7 9 4 5 1019.2 1019.2 0.0
19/08:00am 15.0 14.7 13.2 89 1.0 NNW 7 13 4 7 1019.2 1019.2 0.0
19/07:30am 13.2 11.0 12.1 93 0.6 NNW 15 20 8 11 1019.0 1019.0 0.0
19/07:00am 12.6 10.3 11.7 94 0.5 NNW 15 20 8 11 1018.9 1018.9 0.0
19/06:30am 11.8 9.3 11.2 96 0.3 NNW 15 19 8 10 1018.5 1018.5 0.0
19/06:00am 11.5 10.5 10.9 96 0.3 N 7 15 4 8 1018.5 1018.5 0.0
19/05:30am 11.7 9.6 11.2 97 0.3 N 13 17 7 9 1018.2 1018.2 0.0
19/05:00am 11.5 10.7 10.9 96 0.3 N 6 11 3 6 1017.9 1017.9 0.0
19/04:30am 11.6 10.2 11.0 96 0.3 N 9 13 5 7 1017.8 1017.8 0.0
19/04:00am 12.0 11.2 11.2 95 0.4 N 6 9 3 5 1017.7 1017.7 0.0
19/03:30am 11.6 10.5 10.8 95 0.4 NNW 7 9 4 5 1017.6 1017.6 0.0
19/03:00am 11.6 10.6 11.0 96 0.3 N 7 9 4 5 1017.6 1017.6 0.0
19/02:30am 12.0 10.7 11.4 96 0.3 N 9 11 5 6 1017.7 1017.7 0.0
19/02:00am 12.1 10.8 11.2 94 0.5 N 9 13 5 7 1018.0 1018.0 0.0
19/01:30am 12.6 11.5 11.8 95 0.4 N 9 11 5 6 1018.2 1018.2 0.0
19/01:00am 12.8 11.7 12.0 95 0.4 N 9 11 5 6 1018.5 1018.5 0.0
19/12:30am 12.8 12.1 11.9 94 0.5 N 7 9 4 5 1018.5 1018.5 0.0
19/12:00am 13.5 12.3 12.7 95 0.4 N 11 13 6 7 1018.5 1018.5 0.0
 
Date/Time
EST
Temp
°C
App
Temp
°C
Dew
Point
°C
Rel
Hum
%
Delta-T
°C
Wind Press
QNH
hPa
Press
MSL
hPa
Rain since
9am
mm
Dir  Spd
km/h
Gust
km/h
Spd
kts
Gust
kts
18/11:30pm 13.2 12.2 12.3 94 0.5 N 9 11 5 6 1018.6 1018.6 0.0
18/11:00pm 13.4 13.0 12.5 94 0.5 N 6 7 3 4 1018.7 1018.7 0.0
18/10:30pm 13.8 12.7 13.0 95 0.4 N 11 13 6 7 1018.8 1018.8 0.0
18/10:00pm 13.4 13.0 12.3 93 0.6 N 6 7 3 4 1018.8 1018.8 0.0
18/09:30pm 14.1 13.9 13.1 94 0.6 N 6 9 3 5 1018.8 1018.8 0.0
18/09:00pm 14.2 13.4 12.9 92 0.7 W 9 11 5 6 1018.9 1018.9 0.0
18/08:30pm 15.2 16.4 13.7 91 0.8 CALM 0 0 0 0 1018.9 1018.9 0.0
18/08:00pm 15.5 15.7 13.0 85 1.4 S 4 6 2 3 1018.7 1018.7 0.0
18/07:30pm 15.6 15.5 13.3 86 1.3 S 6 7 3 4 1018.4 1018.4 0.0
18/07:00pm 16.2 16.1 13.3 83 1.6 S 6 7 3 4 1018.1 1018.1 0.0
18/06:30pm 16.1 15.4 13.2 83 1.6 S 9 11 5 6 1017.7 1017.7 0.0
18/06:00pm 17.4 16.4 13.3 77 2.3 S 11 17 6 9 1017.4 1017.4 0.0
18/05:30pm 18.7 16.4 12.9 69 3.3 SSE 17 24 9 13 1017.1 1017.1 0.0
18/05:00pm 19.8 17.4 12.8 64 3.9 SSE 17 26 9 14 1016.8 1016.8 0.0
18/04:30pm 20.0 18.3 13.5 66 3.7 SSE 15 22 8 12 1016.6 1016.6 0.0
18/04:00pm 21.1 19.5 13.8 63 4.2 SE 15 22 8 12 1016.5 1016.5 0.0
18/03:30pm 20.9 18.8 13.6 63 4.2 SSE 17 22 9 12 1016.5 1016.5 0.0
18/03:00pm 22.7 21.3 12.3 52 5.9 SW 11 17 6 9 1016.3 1016.3 0.0
18/02:30pm 22.2 20.6 12.7 55 5.4 SSE 13 20 7 11 1016.3 1016.3 0.0
18/02:00pm 22.0 20.4 12.8 56 5.2 SSE 13 26 7 14 1016.5 1016.5 0.0
18/01:30pm 21.9 20.9 12.2 54 5.5 S 9 17 5 9 1016.8 1016.8 0.0
18/01:00pm 21.7 20.5 12.8 57 5.1 SSE 11 19 6 10 1017.1 1017.1 0.0
18/12:30pm 21.1 19.1 12.8 59 4.7 SSW 15 22 8 12 1017.3 1017.3 0.0
18/12:00pm 20.5 18.2 13.0 62 4.3 S 17 20 9 11 1017.9 1017.9 0.0
18/11:30am 20.4 18.4 12.6 61 4.4 SSW 15 24 8 13 1018.5 1018.5 0.0
18/11:00am 19.8 17.4 12.8 64 3.9 S 17 24 9 13 1018.9 1018.9 0.0

Other formats

Comma delimited format used in spreadsheet applications
http://www.bom.gov.au/fwo/IDN60801/IDN60801.94572.axf

JavaScript Object Notation format (JSON) in row-major order
http://www.bom.gov.au/fwo/IDN60801/IDN60801.94572.json

Data quality

Most of these data are generated automatically and are frequently updated. Quality checks on data are not normally performed. It is possible for incorrect values to appear. Refer to information at About Latest Weather Observations and please check the disclaimer before using these data.